createdAt,value
2017-04-05T00:00:32.453Z,7.15
2017-04-05T00:01:30.823Z,7.25
2017-04-05T00:02:29.184Z,9.70
2017-04-05T00:03:27.642Z,7.57
2017-04-05T00:04:26.111Z,7.82
2017-04-05T00:05:25.375Z,8.00
2017-04-05T00:06:24.529Z,7.47
2017-04-05T00:07:22.910Z,8.20
2017-04-05T00:08:21.314Z,7.17
2017-04-05T00:09:20.511Z,8.13
2017-04-05T00:10:19.718Z,8.77
2017-04-05T00:11:18.049Z,7.50
2017-04-05T00:12:16.410Z,6.98
2017-04-05T00:13:15.629Z,8.97
2017-04-05T00:14:14.004Z,8.33
2017-04-05T00:15:12.430Z,6.77
2017-04-05T00:16:10.825Z,8.37
2017-04-05T00:17:16.572Z,6.57
2017-04-05T00:18:15.710Z,7.17
2017-04-05T00:19:14.145Z,7.87
2017-04-05T00:20:12.521Z,6.98
2017-04-05T00:21:10.937Z,7.95
2017-04-05T00:22:09.347Z,6.83
2017-04-05T00:23:07.729Z,11.67
2017-04-05T00:24:06.154Z,7.27
2017-04-05T00:25:04.522Z,6.97
2017-04-05T00:26:03.440Z,6.95
2017-04-05T00:27:01.834Z,6.85
2017-04-05T00:28:00.174Z,7.27
2017-04-05T00:28:58.580Z,7.07
2017-04-05T00:29:56.996Z,7.02
2017-04-05T00:30:55.513Z,8.33
2017-04-05T00:31:53.882Z,8.28
2017-04-05T00:32:52.217Z,6.97
2017-04-05T00:33:50.574Z,6.67
2017-04-05T00:34:48.905Z,7.65
2017-04-05T00:35:47.265Z,6.97
2017-04-05T00:36:45.641Z,7.23
2017-04-05T00:37:43.989Z,7.18
2017-04-05T00:38:42.333Z,6.88
2017-04-05T00:39:40.746Z,8.12
2017-04-05T00:40:39.130Z,6.73
2017-04-05T00:41:37.500Z,7.47
2017-04-05T00:42:35.864Z,8.23
2017-04-05T00:43:34.260Z,7.25
2017-04-05T00:44:33.373Z,6.97
2017-04-05T00:45:31.758Z,6.82
2017-04-05T00:46:30.250Z,9.27
2017-04-05T00:47:28.625Z,7.60
2017-04-05T00:48:26.987Z,6.43
2017-04-05T00:49:25.332Z,6.37
2017-04-05T00:50:24.435Z,7.80
2017-04-05T00:51:22.930Z,9.27
2017-04-05T00:52:22.061Z,6.93
2017-04-05T00:53:20.416Z,7.30
2017-04-05T00:54:18.893Z,6.83
2017-04-05T00:55:17.318Z,7.78
2017-04-05T00:56:15.697Z,7.03
2017-04-05T00:57:14.064Z,9.63
2017-04-05T00:58:12.569Z,7.82
2017-04-05T00:59:11.092Z,7.35
2017-04-05T01:00:09.547Z,6.83
2017-04-05T01:01:07.945Z,8.37
2017-04-05T01:02:07.094Z,7.43
2017-04-05T01:03:05.470Z,9.35
2017-04-05T01:04:03.925Z,8.28
2017-04-05T01:05:02.494Z,8.80
2017-04-05T01:06:00.905Z,9.80
2017-04-05T01:07:00.021Z,7.35
2017-04-05T01:07:59.105Z,7.60
2017-04-05T01:08:57.610Z,7.68
2017-04-05T01:09:56.303Z,8.72
2017-04-05T01:10:54.701Z,8.30
2017-04-05T01:11:53.801Z,7.98
2017-04-05T01:12:51.407Z,7.27
2017-04-05T01:13:49.788Z,6.53
2017-04-05T01:14:48.213Z,6.97
2017-04-05T01:15:46.577Z,6.70
2017-04-05T01:16:44.961Z,7.47
2017-04-05T01:17:43.453Z,8.10
2017-04-05T01:18:41.786Z,9.42
2017-04-05T01:19:40.237Z,8.33
2017-04-05T01:20:38.601Z,9.87
2017-04-05T01:21:36.969Z,7.82
2017-04-05T01:22:36.032Z,8.32
2017-04-05T01:23:34.358Z,8.25
2017-04-05T01:24:32.725Z,8.87
2017-04-05T01:25:31.081Z,9.62
2017-04-05T01:26:30.189Z,9.37
2017-04-05T01:27:28.538Z,7.43
2017-04-05T01:28:26.977Z,8.65
2017-04-05T01:29:25.904Z,10.32
2017-04-05T01:30:25.025Z,8.17
2017-04-05T01:31:23.392Z,8.35
2017-04-05T01:32:21.749Z,8.95
2017-04-05T01:33:20.137Z,8.83
2017-04-05T01:34:18.488Z,8.63
2017-04-05T01:35:16.862Z,8.17
2017-04-05T01:36:15.288Z,8.78
2017-04-05T01:37:13.668Z,10.62
2017-04-05T01:38:12.769Z,8.42
2017-04-05T01:39:11.164Z,9.30
2017-04-05T01:40:09.510Z,9.10
2017-04-05T01:41:07.877Z,9.13
2017-04-05T01:42:06.228Z,9.37
2017-04-05T01:43:05.616Z,10.52
2017-04-05T01:44:04.032Z,9.22
2017-04-05T01:45:02.388Z,12.85
2017-04-05T01:46:00.753Z,9.57
2017-04-05T01:46:59.191Z,11.62
2017-04-05T01:47:57.504Z,12.05
2017-04-05T01:48:55.885Z,8.95
2017-04-05T01:49:54.256Z,13.40
2017-04-05T01:50:52.637Z,9.23
2017-04-05T01:51:51.773Z,11.48
2017-04-05T01:52:50.154Z,9.43
2017-04-05T01:53:48.544Z,9.38
2017-04-05T01:54:46.941Z,10.33
2017-04-05T01:55:46.053Z,10.97
2017-04-05T01:56:45.134Z,10.40
2017-04-05T01:57:43.495Z,9.77
2017-04-05T01:58:41.958Z,9.12
2017-04-05T01:59:41.109Z,9.32
2017-04-05T02:00:39.643Z,10.93
2017-04-05T02:01:38.061Z,10.50
2017-04-05T02:02:36.560Z,9.58
2017-04-05T02:03:34.983Z,8.70
2017-04-05T02:04:33.392Z,10.73
2017-04-05T02:05:32.495Z,11.97
2017-04-05T02:06:30.873Z,8.97
2017-04-05T02:07:29.196Z,10.55
2017-04-05T02:08:28.329Z,10.00
2017-04-05T02:09:26.674Z,9.60
2017-04-05T02:10:25.811Z,8.95
2017-04-05T02:11:24.189Z,10.00
2017-04-05T02:12:22.521Z,9.30
2017-04-05T02:13:20.969Z,12.15
2017-04-05T02:14:19.337Z,9.33
2017-04-05T02:15:17.745Z,7.95
2017-04-05T02:16:16.168Z,8.60
2017-04-05T02:17:14.545Z,9.55
2017-04-05T02:18:12.918Z,9.92
2017-04-05T02:19:12.008Z,9.08
2017-04-05T02:20:10.252Z,9.47
2017-04-05T02:21:08.666Z,9.58
2017-04-05T02:22:07.065Z,9.20
2017-04-05T02:23:05.449Z,10.57
2017-04-05T02:24:03.868Z,8.42
2017-04-05T02:25:02.220Z,9.15
2017-04-05T02:26:01.385Z,10.00
2017-04-05T02:27:00.513Z,8.75
2017-04-05T02:27:58.906Z,9.60
2017-04-05T02:28:57.317Z,9.87
2017-04-05T02:29:55.921Z,12.32
2017-04-05T02:30:54.361Z,9.68
2017-04-05T02:31:53.482Z,8.93
2017-04-05T02:32:51.951Z,12.97
2017-04-05T02:33:50.485Z,9.52
2017-04-05T02:34:48.833Z,12.13
2017-04-05T02:35:47.409Z,11.05
2017-04-05T02:36:46.061Z,13.03
2017-04-05T02:37:44.740Z,9.40
2017-04-05T02:38:44.068Z,12.40
2017-04-05T02:39:43.184Z,12.80
2017-04-05T02:40:41.701Z,9.97
2017-04-05T02:41:46.650Z,11.17
2017-04-05T02:42:45.157Z,13.32
2017-04-05T02:43:43.613Z,12.90
2017-04-05T02:44:42.115Z,14.75
2017-04-05T02:45:40.643Z,14.37
2017-04-05T02:46:39.077Z,17.23
2017-04-05T02:47:37.469Z,17.40
2017-04-05T02:48:35.797Z,16.58
2017-04-05T02:49:34.134Z,15.53
2017-04-05T02:50:32.498Z,17.48
2017-04-05T02:51:31.602Z,18.23
2017-04-05T02:52:29.924Z,18.58
2017-04-05T02:53:28.506Z,18.57
2017-04-05T02:54:27.860Z,20.23
2017-04-05T02:55:26.353Z,20.80
2017-04-05T02:56:24.768Z,22.68
2017-04-05T02:57:23.256Z,22.38
2017-04-05T02:58:21.657Z,21.70
2017-04-05T02:59:20.084Z,23.17
2017-04-05T03:00:18.625Z,20.42
2017-04-05T03:01:17.176Z,19.75
2017-04-05T03:02:16.341Z,22.17
2017-04-05T03:03:14.781Z,23.95
2017-04-05T03:04:13.203Z,21.12
2017-04-05T03:05:11.613Z,18.48
2017-04-05T03:06:10.834Z,21.32
2017-04-05T03:07:09.286Z,22.23
2017-04-05T03:08:07.782Z,18.72
2017-04-05T03:09:06.240Z,20.35
2017-04-05T03:10:05.359Z,18.37
2017-04-05T03:11:03.781Z,20.63
2017-04-05T03:12:02.202Z,21.43
2017-04-05T03:13:00.669Z,19.80
2017-04-05T03:13:59.149Z,21.58
2017-04-05T03:14:57.639Z,21.52
2017-04-05T03:15:56.024Z,25.25
2017-04-05T03:16:54.474Z,21.33
2017-04-05T03:17:53.705Z,22.75
2017-04-05T03:18:52.171Z,19.13
2017-04-05T03:19:50.601Z,21.33
2017-04-05T03:20:49.859Z,21.40
2017-04-05T03:21:48.333Z,19.13
2017-04-05T03:22:46.857Z,20.83
2017-04-05T03:23:45.439Z,19.02
2017-04-05T03:24:43.823Z,19.58
2017-04-05T03:25:42.319Z,21.10
2017-04-05T03:26:40.822Z,21.65
2017-04-05T03:27:40.017Z,19.82
2017-04-05T03:28:39.217Z,18.38
2017-04-05T03:29:38.415Z,21.35
2017-04-05T03:30:36.924Z,20.87
2017-04-05T03:31:35.377Z,22.50
2017-04-05T03:32:33.949Z,18.93
2017-04-05T03:33:32.477Z,24.03
2017-04-05T03:34:31.678Z,20.67
2017-04-05T03:35:30.141Z,21.75
2017-04-05T03:36:29.365Z,19.87
2017-04-05T03:37:27.833Z,25.43
2017-04-05T03:38:26.300Z,22.05
2017-04-05T03:39:24.753Z,23.78
2017-04-05T03:40:23.205Z,22.98
2017-04-05T03:41:21.700Z,18.67
2017-04-05T03:42:20.101Z,25.80
2017-04-05T03:43:18.546Z,20.75
2017-04-05T03:44:17.008Z,23.58
2017-04-05T03:45:15.486Z,21.05
2017-04-05T03:46:14.011Z,22.65
2017-04-05T03:47:12.441Z,23.73
2017-04-05T03:48:10.968Z,18.50
2017-04-05T03:49:09.483Z,17.80
2017-04-05T03:50:07.978Z,20.10
2017-04-05T03:51:06.529Z,16.77
2017-04-05T03:52:05.097Z,14.82
2017-04-05T03:53:03.621Z,15.95
2017-04-05T03:54:02.085Z,16.15
2017-04-05T03:55:00.621Z,14.87
2017-04-05T03:55:59.121Z,15.37
2017-04-05T03:56:57.517Z,11.68
2017-04-05T03:57:56.034Z,14.15
2017-04-05T03:58:54.541Z,12.37
2017-04-05T03:59:53.004Z,10.53
2017-04-05T04:00:51.481Z,14.08
2017-04-05T04:01:49.969Z,11.68
2017-04-05T04:02:49.177Z,11.95
2017-04-05T04:03:48.347Z,11.28
2017-04-05T04:04:47.596Z,16.12
2017-04-05T04:05:46.042Z,14.05
2017-04-05T04:06:44.514Z,12.62
2017-04-05T04:07:43.037Z,12.50
2017-04-05T04:08:42.282Z,12.57
2017-04-05T04:09:40.702Z,11.32
2017-04-05T04:10:39.145Z,16.43
2017-04-05T04:11:37.645Z,10.92
2017-04-05T04:12:36.778Z,10.73
2017-04-05T04:13:35.270Z,13.00
2017-04-05T04:14:33.729Z,13.20
2017-04-05T04:15:32.139Z,10.72
2017-04-05T04:16:30.588Z,10.48
2017-04-05T04:17:29.048Z,12.62
2017-04-05T04:18:27.461Z,14.18
2017-04-05T04:19:25.968Z,11.53
2017-04-05T04:20:24.537Z,12.35
2017-04-05T04:21:24.376Z,14.20
2017-04-05T04:22:22.896Z,14.08
2017-04-05T04:23:21.317Z,15.57
2017-04-05T04:24:19.776Z,12.68
2017-04-05T04:25:19.021Z,13.12
2017-04-05T04:26:17.467Z,15.23
2017-04-05T04:27:15.874Z,13.55
2017-04-05T04:28:14.374Z,12.85
2017-04-05T04:29:12.728Z,11.15
2017-04-05T04:30:11.169Z,13.22
2017-04-05T04:31:10.421Z,12.45
2017-04-05T04:32:08.897Z,10.80
2017-04-05T04:33:07.355Z,14.18
2017-04-05T04:34:05.745Z,14.05
2017-04-05T04:35:04.233Z,13.33
2017-04-05T04:36:02.793Z,15.62
2017-04-05T04:37:01.217Z,18.38
2017-04-05T04:37:59.653Z,11.98
2017-04-05T04:38:58.778Z,15.08
2017-04-05T04:39:57.184Z,16.20
2017-04-05T04:40:55.632Z,17.02
2017-04-05T04:41:54.122Z,14.27
2017-04-05T04:42:52.585Z,14.93
2017-04-05T04:43:51.020Z,16.75
2017-04-05T04:44:49.556Z,15.77
2017-04-05T04:45:47.974Z,14.73
2017-04-05T04:46:46.321Z,17.12
2017-04-05T04:47:44.673Z,15.80
2017-04-05T04:48:43.832Z,15.97
2017-04-05T04:49:42.332Z,14.88
2017-04-05T04:50:41.533Z,17.43
2017-04-05T04:51:40.704Z,16.78
2017-04-05T04:52:39.125Z,14.47
2017-04-05T04:53:37.541Z,14.07
2017-04-05T04:54:36.793Z,15.90
2017-04-05T04:55:35.246Z,18.87
2017-04-05T04:56:34.524Z,16.25
2017-04-05T04:57:33.026Z,15.68
2017-04-05T04:58:31.414Z,15.50
2017-04-05T04:59:29.821Z,17.35
2017-04-05T05:00:29.074Z,16.85
2017-04-05T05:01:27.582Z,14.77
2017-04-05T05:02:26.053Z,12.25
2017-04-05T05:03:24.562Z,18.08
2017-04-05T05:04:23.073Z,17.42
2017-04-05T05:05:22.266Z,16.87
2017-04-05T05:06:21.497Z,15.05
2017-04-05T05:07:19.961Z,12.70
2017-04-05T05:08:19.174Z,19.33
2017-04-05T05:09:17.717Z,18.62
2017-04-05T05:10:16.141Z,16.35
2017-04-05T05:11:15.307Z,14.90
2017-04-05T05:12:13.765Z,15.92
2017-04-05T05:13:12.910Z,23.82
2017-04-05T05:14:12.210Z,20.25
2017-04-05T05:15:10.573Z,18.97
2017-04-05T05:16:09.760Z,17.85
2017-04-05T05:17:08.941Z,19.80
2017-04-05T05:18:08.278Z,19.48
2017-04-05T05:19:06.745Z,20.07
2017-04-05T05:20:05.286Z,19.57
2017-04-05T05:21:04.549Z,22.37
2017-04-05T05:22:03.709Z,20.22
2017-04-05T05:23:02.105Z,21.57
2017-04-05T05:24:01.297Z,19.87
2017-04-05T05:25:00.577Z,19.47
2017-04-05T05:25:58.948Z,22.02
2017-04-05T05:26:58.173Z,21.08
2017-04-05T05:27:57.331Z,19.52
2017-04-05T05:28:55.772Z,24.28
2017-04-05T05:29:54.281Z,20.85
2017-04-05T05:30:52.696Z,22.03
2017-04-05T05:31:51.095Z,19.77
2017-04-05T05:32:49.577Z,17.83
2017-04-05T05:33:48.897Z,21.75
2017-04-05T05:34:47.437Z,22.08
2017-04-05T05:35:46.712Z,19.68
2017-04-05T05:36:45.154Z,23.53
2017-04-05T05:37:43.567Z,20.08
2017-04-05T05:38:41.971Z,21.25
2017-04-05T05:39:40.361Z,18.27
2017-04-05T05:40:38.741Z,19.30
2017-04-05T05:41:37.283Z,20.53
2017-04-05T05:42:35.743Z,18.12
2017-04-05T05:43:34.142Z,18.38
2017-04-05T05:44:33.323Z,17.72
2017-04-05T05:45:31.745Z,19.45
2017-04-05T05:46:30.161Z,19.12
2017-04-05T05:47:28.546Z,19.23
2017-04-05T05:48:27.757Z,18.15
2017-04-05T05:49:26.227Z,20.90
2017-04-05T05:50:24.714Z,15.78
2017-04-05T05:51:24.031Z,15.18
2017-04-05T05:52:22.519Z,19.90
2017-04-05T05:53:21.725Z,15.95
2017-04-05T05:54:20.166Z,16.27
2017-04-05T05:55:19.312Z,23.45
2017-04-05T05:56:17.747Z,16.23
2017-04-05T05:57:16.245Z,20.85
2017-04-05T05:58:14.691Z,20.07
2017-04-05T05:59:14.073Z,21.35
2017-04-05T06:00:12.636Z,19.53
2017-04-05T06:01:11.120Z,18.78
2017-04-05T06:02:10.376Z,21.02
2017-04-05T06:03:09.557Z,21.13
2017-04-05T06:04:08.719Z,19.50
2017-04-05T06:05:07.178Z,18.12
2017-04-05T06:06:05.635Z,19.87
2017-04-05T06:07:04.769Z,22.38
2017-04-05T06:08:03.951Z,24.75
2017-04-05T06:09:03.396Z,20.42
2017-04-05T06:10:01.801Z,21.43
2017-04-05T06:11:00.266Z,26.28
2017-04-05T06:11:58.733Z,26.08
2017-04-05T06:12:57.204Z,26.93
2017-04-05T06:13:55.634Z,26.17
2017-04-05T06:14:54.803Z,24.32
2017-04-05T06:15:53.205Z,23.98
2017-04-05T06:16:51.597Z,31.35
2017-04-05T06:17:50.204Z,24.20
2017-04-05T06:18:48.614Z,35.65
2017-04-05T06:19:47.061Z,33.25
2017-04-05T06:20:45.534Z,35.42
2017-04-05T06:21:44.766Z,31.30
2017-04-05T06:22:43.241Z,29.90
2017-04-05T06:23:41.703Z,25.83
2017-04-05T06:24:40.111Z,28.08
2017-04-05T06:25:38.495Z,36.75
2017-04-05T06:26:37.639Z,29.30
2017-04-05T06:27:36.038Z,36.60
2017-04-05T06:28:34.458Z,38.78
2017-04-05T06:29:32.830Z,35.85
2017-04-05T06:30:31.994Z,31.08
2017-04-05T06:31:30.460Z,27.55
2017-04-05T06:32:28.838Z,29.32
2017-04-05T06:33:27.319Z,32.98
2017-04-05T06:34:25.697Z,32.90
2017-04-05T06:35:24.106Z,32.47
2017-04-05T06:36:22.460Z,32.73
2017-04-05T06:37:20.893Z,35.12
2017-04-05T06:38:20.091Z,31.45
2017-04-05T06:39:18.575Z,40.35
2017-04-05T06:40:17.031Z,30.65
2017-04-05T06:41:15.435Z,36.15
2017-04-05T06:42:13.977Z,33.97
2017-04-05T06:43:12.326Z,34.98
2017-04-05T06:44:10.728Z,39.67
2017-04-05T06:45:09.158Z,31.68
2017-04-05T06:46:08.268Z,36.15
2017-04-05T06:47:06.678Z,36.07
2017-04-05T06:48:05.151Z,38.93
2017-04-05T06:49:03.604Z,32.67
2017-04-05T06:50:02.005Z,35.02
2017-04-05T06:51:01.345Z,34.40
2017-04-05T06:51:59.753Z,35.63
2017-04-05T06:52:58.197Z,35.80
2017-04-05T06:53:57.357Z,37.50
2017-04-05T06:54:55.746Z,34.75
2017-04-05T06:55:54.202Z,37.58
2017-04-05T06:56:53.402Z,39.27
2017-04-05T06:57:51.794Z,35.63
2017-04-05T06:58:50.187Z,35.57
2017-04-05T06:59:48.618Z,42.85
2017-04-05T07:00:47.081Z,43.22
2017-04-05T07:01:45.473Z,35.95
2017-04-05T07:02:43.948Z,39.12
2017-04-05T07:03:42.353Z,36.37
2017-04-05T07:04:41.507Z,35.28
2017-04-05T07:05:39.959Z,37.85
2017-04-05T07:06:38.304Z,42.60
2017-04-05T07:07:36.694Z,38.95
2017-04-05T07:08:35.865Z,40.72
2017-04-05T07:09:34.293Z,35.83
2017-04-05T07:10:32.677Z,35.23
2017-04-05T07:11:31.813Z,37.05
2017-04-05T07:12:30.168Z,39.18
2017-04-05T07:13:28.541Z,38.13
2017-04-05T07:14:27.089Z,37.43
2017-04-05T07:15:26.194Z,40.38
2017-04-05T07:16:24.583Z,32.95
2017-04-05T07:17:22.973Z,32.12
2017-04-05T07:18:21.336Z,36.68
2017-04-05T07:19:19.717Z,40.53
2017-04-05T07:20:18.093Z,33.28
2017-04-05T07:21:17.421Z,35.47
2017-04-05T07:22:15.822Z,33.77
2017-04-05T07:23:14.309Z,36.73
2017-04-05T07:24:12.687Z,35.90
2017-04-05T07:25:11.897Z,33.30
2017-04-05T07:26:10.355Z,34.53
2017-04-05T07:27:08.813Z,38.48
2017-04-05T07:28:07.247Z,33.20
2017-04-05T07:29:06.401Z,35.33
2017-04-05T07:30:04.926Z,31.92
2017-04-05T07:31:03.517Z,35.45
2017-04-05T07:32:02.694Z,39.60
2017-04-05T07:33:01.183Z,32.98
2017-04-05T07:33:59.754Z,38.23
2017-04-05T07:34:58.183Z,32.77
2017-04-05T07:35:56.607Z,32.68
2017-04-05T07:36:55.725Z,32.23
2017-04-05T07:37:54.221Z,33.58
2017-04-05T07:38:52.620Z,34.80
2017-04-05T07:39:51.001Z,35.33
2017-04-05T07:40:49.393Z,38.30
2017-04-05T07:41:48.608Z,35.02
2017-04-05T07:42:47.009Z,32.23
2017-04-05T07:43:45.433Z,35.68
2017-04-05T07:44:43.845Z,30.90
2017-04-05T07:45:42.274Z,34.23
2017-04-05T07:46:40.734Z,33.68
2017-04-05T07:47:39.133Z,35.03
2017-04-05T07:48:37.589Z,37.53
2017-04-05T07:49:36.084Z,33.85
2017-04-05T07:50:35.289Z,37.72
2017-04-05T07:51:33.705Z,33.28
2017-04-05T07:52:32.212Z,36.55
2017-04-05T07:53:30.634Z,34.17
2017-04-05T07:54:29.069Z,35.77
2017-04-05T07:55:28.229Z,35.73
2017-04-05T07:56:26.661Z,37.85
2017-04-05T07:57:25.080Z,33.20
2017-04-05T07:58:23.590Z,34.65
2017-04-05T07:59:22.002Z,38.27
2017-04-05T08:00:20.426Z,35.57
2017-04-05T08:01:18.998Z,40.25
2017-04-05T08:02:17.545Z,30.30
2017-04-05T08:03:15.941Z,35.27
2017-04-05T08:04:14.469Z,38.98
2017-04-05T08:05:12.844Z,33.03
2017-04-05T08:06:11.228Z,34.32
2017-04-05T08:07:09.653Z,29.07
2017-04-05T08:08:08.104Z,34.22
2017-04-05T08:09:07.272Z,30.75
2017-04-05T08:10:05.757Z,32.33
2017-04-05T08:11:05.127Z,31.55
2017-04-05T08:12:04.305Z,33.12
2017-04-05T08:13:02.754Z,34.32
2017-04-05T08:14:01.359Z,30.33
2017-04-05T08:14:59.785Z,35.50
2017-04-05T08:15:58.145Z,32.52
2017-04-05T08:16:56.547Z,30.52
2017-04-05T08:17:54.997Z,37.50
2017-04-05T08:18:53.366Z,35.65
2017-04-05T08:19:51.846Z,33.72
2017-04-05T08:20:50.228Z,37.95
2017-04-05T08:21:49.110Z,35.53
2017-04-05T08:22:47.575Z,34.10
2017-04-05T08:23:45.913Z,33.98
2017-04-05T08:24:44.268Z,35.20
2017-04-05T08:25:42.673Z,34.40
2017-04-05T08:26:41.046Z,26.02
2017-04-05T08:27:40.046Z,32.45
2017-04-05T08:28:38.421Z,32.47
2017-04-05T08:29:36.757Z,30.57
2017-04-05T08:30:35.305Z,28.57
2017-04-05T08:31:33.679Z,31.08
2017-04-05T08:32:32.041Z,30.18
2017-04-05T08:33:30.393Z,31.40
2017-04-05T08:34:28.689Z,29.28
2017-04-05T08:35:27.144Z,32.00
2017-04-05T08:36:25.517Z,29.25
2017-04-05T08:37:23.923Z,30.78
2017-04-05T08:38:22.373Z,29.12
2017-04-05T08:39:20.713Z,29.52
2017-04-05T08:40:19.765Z,27.55
2017-04-05T08:41:18.092Z,28.13
2017-04-05T08:42:16.501Z,32.68
2017-04-05T09:00:49.573Z,27.93
2017-04-05T09:01:47.900Z,26.55
2017-04-05T09:02:46.197Z,24.68
2017-04-05T09:03:44.546Z,28.03
2017-04-05T09:04:42.888Z,26.32
2017-04-05T09:05:41.208Z,25.83
2017-04-05T09:06:39.617Z,27.25
2017-04-05T09:07:38.009Z,23.58
2017-04-05T09:08:36.396Z,24.53
2017-04-05T09:09:35.477Z,27.38
2017-04-05T09:10:33.789Z,24.97
2017-04-05T09:11:32.116Z,25.20
2017-04-05T09:12:30.945Z,25.78
2017-04-05T09:13:29.301Z,28.43
2017-04-05T09:14:27.760Z,28.60
2017-04-05T09:15:26.109Z,27.42
2017-04-05T09:16:24.489Z,25.52
2017-04-05T09:17:22.856Z,27.22
2017-04-05T09:18:21.264Z,26.70
2017-04-05T09:19:19.621Z,26.20
2017-04-05T09:20:17.912Z,28.47
2017-04-05T09:21:16.229Z,26.82
2017-04-05T09:22:14.608Z,30.50
2017-04-05T09:23:12.957Z,25.78
2017-04-05T09:24:11.352Z,28.53
2017-04-05T09:25:09.717Z,28.18
2017-04-05T09:26:08.117Z,25.52
2017-04-05T09:27:06.421Z,26.65
2017-04-05T09:28:05.437Z,26.22
2017-04-05T09:29:03.729Z,25.52
2017-04-05T09:30:02.373Z,27.45
2017-04-05T09:31:00.624Z,28.18
2017-04-05T09:31:58.918Z,28.47
2017-04-05T09:33:09.575Z,24.03
2017-04-05T09:34:07.829Z,26.33
2017-04-05T09:35:06.872Z,26.92
2017-04-05T09:36:17.585Z,25.32
2017-04-05T09:37:26.316Z,26.35
2017-04-05T09:38:24.609Z,28.92
2017-04-05T09:39:23.753Z,29.75
2017-04-05T09:40:32.453Z,24.68
2017-04-05T09:41:30.713Z,26.35
2017-04-05T09:42:29.000Z,24.85
2017-04-05T09:43:40.136Z,24.72
2017-04-05T09:44:48.750Z,23.48
2017-04-05T09:45:57.456Z,25.02
2017-04-05T09:46:55.704Z,26.62
2017-04-05T09:47:53.976Z,28.08
2017-04-05T09:49:11.060Z,25.77
2017-04-05T09:50:09.424Z,26.27
2017-04-05T09:51:20.269Z,26.12
2017-04-05T09:52:35.417Z,26.57
2017-04-05T09:53:50.614Z,25.95
2017-04-05T09:54:49.493Z,25.43
2017-04-05T09:55:47.809Z,24.52
2017-04-05T09:56:46.911Z,26.27
2017-04-05T09:57:57.324Z,26.87
2017-04-05T09:58:55.560Z,28.45
2017-04-05T10:00:06.046Z,26.87
2017-04-05T10:01:15.000Z,28.97
2017-04-05T10:02:25.806Z,26.88
2017-04-05T10:03:24.101Z,27.68
2017-04-05T10:04:22.368Z,26.08
2017-04-05T10:05:37.521Z,25.48
2017-04-05T10:06:47.885Z,26.43
2017-04-05T10:08:06.552Z,25.60
2017-04-05T10:09:05.292Z,28.33
2017-04-05T10:10:03.577Z,24.22
2017-04-05T10:11:01.833Z,23.30
2017-04-05T10:12:00.100Z,24.43
2017-04-05T10:12:58.364Z,27.78
2017-04-05T10:13:56.676Z,23.28
2017-04-05T10:14:54.960Z,27.17
2017-04-05T10:16:06.001Z,26.67
2017-04-05T10:17:04.248Z,26.35
2017-04-05T10:18:08.981Z,27.15
2017-04-05T10:19:07.534Z,26.90
2017-04-05T10:20:18.270Z,27.12
2017-04-05T10:21:16.544Z,26.62
2017-04-05T10:22:14.804Z,25.43
2017-04-05T10:23:13.784Z,29.23
2017-04-05T10:24:12.089Z,27.17
2017-04-05T10:25:10.352Z,28.40
2017-04-05T10:26:21.481Z,24.63
2017-04-05T10:27:20.469Z,25.22
2017-04-05T10:28:18.725Z,25.05
2017-04-05T10:29:17.740Z,26.27
2017-04-05T10:30:29.181Z,28.38
2017-04-05T10:31:28.193Z,29.77
2017-04-05T10:32:26.440Z,24.25
2017-04-05T10:33:24.934Z,24.10
2017-04-05T10:34:25.117Z,24.43
2017-04-05T10:35:23.641Z,24.07
2017-04-05T10:36:21.841Z,26.52
2017-04-05T10:37:21.036Z,24.98
2017-04-05T10:38:19.650Z,25.15
2017-04-05T10:39:17.895Z,27.50
2017-04-05T10:40:16.351Z,22.88
2017-04-05T10:41:14.585Z,25.08
2017-04-05T10:42:25.360Z,23.37
2017-04-05T10:43:23.605Z,25.57
2017-04-05T10:44:21.860Z,27.68
2017-04-05T10:45:20.665Z,28.25
2017-04-05T10:46:19.044Z,25.47
2017-04-05T10:47:18.349Z,25.13
2017-04-05T10:48:16.606Z,24.25
2017-04-05T10:49:15.620Z,25.23
2017-04-05T10:50:13.871Z,26.82
2017-04-05T10:51:12.377Z,25.08
2017-04-05T10:52:10.665Z,22.95
2017-04-05T10:53:21.453Z,22.58
2017-04-05T10:54:20.505Z,24.72
2017-04-05T10:55:18.749Z,23.38
2017-04-05T10:56:17.020Z,25.10
2017-04-05T10:57:15.281Z,23.88
2017-04-05T10:58:13.556Z,22.30
2017-04-05T10:59:11.845Z,23.20
2017-04-05T11:00:10.124Z,23.57
2017-04-05T11:01:08.430Z,21.62
2017-04-05T11:02:07.004Z,24.87
2017-04-05T11:03:05.252Z,24.18
2017-04-05T11:04:03.565Z,21.40
2017-04-05T11:05:01.826Z,23.93
2017-04-05T11:06:00.132Z,24.13
2017-04-05T11:06:59.204Z,20.92
2017-04-05T11:07:57.528Z,21.35
2017-04-05T11:08:55.820Z,22.77
2017-04-05T11:09:54.126Z,22.33
2017-04-05T11:10:53.148Z,21.22
2017-04-05T11:11:51.430Z,24.70
2017-04-05T11:12:49.760Z,23.35
2017-04-05T11:13:48.768Z,20.43
2017-04-05T11:14:47.036Z,32.35
2017-04-05T11:15:45.314Z,24.23
2017-04-05T11:16:43.557Z,21.60
2017-04-05T11:17:41.795Z,20.95
2017-04-05T11:18:40.800Z,20.70
2017-04-05T11:19:39.079Z,22.60
2017-04-05T11:20:37.322Z,24.07
2017-04-05T11:21:35.573Z,19.78
2017-04-05T11:22:33.820Z,22.70
2017-04-05T11:23:32.089Z,20.38
2017-04-05T11:24:30.364Z,17.72
2017-04-05T11:25:29.429Z,18.47
2017-04-05T11:26:27.660Z,17.52
2017-04-05T11:27:26.644Z,16.87
2017-04-05T11:28:24.908Z,17.52
2017-04-05T11:29:23.156Z,18.83
2017-04-05T11:30:22.304Z,18.25
2017-04-05T11:31:20.566Z,17.32
2017-04-05T11:32:18.840Z,19.35
2017-04-05T11:33:18.018Z,15.82
2017-04-05T11:34:16.284Z,19.28
2017-04-05T11:35:14.586Z,19.57
2017-04-05T11:36:12.985Z,21.10
2017-04-05T11:37:11.329Z,21.03
2017-04-05T11:38:10.368Z,19.03
2017-04-05T11:39:08.649Z,19.35
2017-04-05T11:40:06.965Z,18.23
2017-04-05T11:41:05.228Z,17.73
2017-04-05T11:42:03.744Z,18.65
2017-04-05T11:43:02.000Z,19.62
2017-04-05T11:44:00.240Z,18.57
2017-04-05T11:44:58.481Z,16.25
2017-04-05T11:45:57.457Z,18.30
2017-04-05T11:46:56.291Z,15.63
2017-04-05T11:47:55.080Z,16.43
2017-04-05T11:48:53.340Z,17.17
2017-04-05T11:49:51.616Z,21.67
2017-04-05T11:50:49.864Z,14.20
2017-04-05T11:51:48.092Z,19.57
2017-04-05T11:52:46.356Z,13.70
2017-04-05T11:53:44.628Z,17.88
2017-04-05T11:54:42.928Z,16.78
2017-04-05T11:55:41.168Z,16.55
2017-04-05T11:56:39.394Z,15.03
2017-04-05T11:57:37.628Z,16.27
2017-04-05T11:58:35.905Z,17.17
2017-04-05T11:59:34.183Z,16.10
2017-04-05T12:00:32.469Z,15.05
2017-04-05T12:01:31.477Z,17.72
2017-04-05T12:02:29.737Z,15.60
2017-04-05T12:03:28.072Z,15.78
2017-04-05T12:04:27.079Z,19.33
2017-04-05T12:05:26.113Z,16.57
2017-04-05T12:06:24.389Z,16.78
2017-04-05T12:07:22.661Z,19.85
2017-04-05T12:08:20.943Z,19.63
2017-04-05T12:09:19.986Z,14.92
2017-04-05T12:10:18.224Z,16.33
2017-04-05T12:11:16.696Z,16.05
2017-04-05T12:12:15.088Z,16.87
2017-04-05T12:13:13.364Z,19.20
2017-04-05T12:14:11.640Z,21.63
2017-04-05T12:15:09.918Z,18.88
2017-04-05T12:16:08.202Z,18.27
2017-04-05T12:17:06.981Z,18.37
2017-04-05T12:18:05.233Z,17.87
2017-04-05T12:19:03.501Z,16.63
2017-04-05T12:20:01.752Z,21.37
2017-04-05T12:20:59.998Z,15.13
2017-04-05T12:21:58.299Z,15.02
2017-04-05T12:22:56.551Z,16.67
2017-04-05T12:23:54.826Z,14.13
2017-04-05T12:24:53.058Z,20.48
2017-04-05T12:25:51.392Z,17.92
2017-04-05T12:26:50.960Z,15.90
2017-04-05T12:27:49.571Z,17.37
2017-04-05T12:28:48.548Z,16.55
2017-04-05T12:29:47.511Z,18.92
2017-04-05T12:30:46.497Z,16.52
2017-04-05T12:31:45.521Z,15.37
2017-04-05T12:32:43.779Z,15.40
2017-04-05T12:33:42.042Z,16.67
2017-04-05T12:34:40.295Z,16.08
2017-04-05T12:35:37.877Z,17.32
2017-04-05T12:36:36.124Z,14.88
2017-04-05T12:37:34.360Z,16.07
2017-04-05T12:38:33.365Z,16.48
2017-04-05T12:39:31.648Z,14.52
2017-04-05T12:40:29.896Z,16.18
2017-04-05T12:41:28.152Z,15.95
2017-04-05T12:42:27.216Z,17.13
2017-04-05T12:45:21.256Z,14.97
2017-04-05T12:46:19.512Z,16.22
2017-04-05T12:47:17.781Z,17.05
2017-04-05T12:48:16.040Z,15.80
2017-04-05T12:49:14.313Z,15.18
2017-04-05T12:50:12.574Z,15.45
2017-04-05T12:51:11.124Z,16.63
2017-04-05T12:52:09.391Z,17.10
2017-04-05T12:53:07.649Z,16.00
2017-04-05T12:54:05.888Z,14.97
2017-04-05T12:55:04.161Z,15.78
2017-04-05T12:56:02.415Z,17.00
2017-04-05T12:57:00.677Z,15.18
2017-04-05T12:57:58.908Z,16.10
2017-04-05T12:58:57.171Z,15.13
2017-04-05T12:59:55.447Z,24.02
2017-04-05T13:00:53.753Z,15.32
2017-04-05T13:01:52.036Z,16.27
2017-04-05T13:02:50.257Z,18.27
2017-04-05T13:03:48.572Z,18.78